THY2SE ESSA-LTFM
Flight info
| Callsign | THY2SE |
|---|---|
| Flight time | N/A |
| Altitude | 33000 |
| Route | BABAP T316 NEPVA DCT ANFEV DCT NUBLI/N0460F350 N133 KOTEK DCT KENIN DCT RUTUV DCT RONBU DCT ATBOG DCT BUVAK DCT RIXEN |
| Aircraft | B738/M-SDE2E3FGHIRWXY/LB1 |
Departure
| Time | 2026-04-29 16:13 |
|---|---|
| Airport | Stockholm-Arlanda Airport (ESSA) |
Arrival
| Time | N/A |
|---|---|
| Airport | İstanbul Airport (LTFM) |
| Time | Latitude | Longitude | Altitude | Speed | Heading |
|---|---|---|---|---|---|
| 2026-04-29 15:48 | 59.65474 | 17.93486 | 111 ft | 0 kts | 76° |
| 2026-04-29 16:01 | 59.65469 | 17.93449 | 111 ft | 4 kts | 76° |
| 2026-04-29 16:01 | 59.65464 | 17.93408 | 111 ft | 4 kts | 71° |
| 2026-04-29 16:01 | 59.65452 | 17.93363 | 110 ft | 4 kts | 34° |
| 2026-04-29 16:02 | 59.65436 | 17.93354 | 108 ft | 0 kts | 346° |
| 2026-04-29 16:06 | 59.65448 | 17.93348 | 109 ft | 5 kts | 347° |
| 2026-04-29 16:06 | 59.65502 | 17.93340 | 111 ft | 9 kts | 339° |
| 2026-04-29 16:06 | 59.65522 | 17.93224 | 111 ft | 11 kts | 258° |
| 2026-04-29 16:07 | 59.65503 | 17.93071 | 111 ft | 12 kts | 256° |
| 2026-04-29 16:07 | 59.65477 | 17.92913 | 111 ft | 13 kts | 251° |
| 2026-04-29 16:07 | 59.65441 | 17.92749 | 109 ft | 13 kts | 242° |
| 2026-04-29 16:07 | 59.65387 | 17.92595 | 110 ft | 14 kts | 228° |
| 2026-04-29 16:08 | 59.65307 | 17.92466 | 109 ft | 15 kts | 210° |
| 2026-04-29 16:08 | 59.65209 | 17.92387 | 111 ft | 15 kts | 196° |
| 2026-04-29 16:08 | 59.65103 | 17.92347 | 109 ft | 16 kts | 190° |
| 2026-04-29 16:08 | 59.64988 | 17.92306 | 111 ft | 17 kts | 190° |
| 2026-04-29 16:09 | 59.64867 | 17.92262 | 111 ft | 18 kts | 190° |
| 2026-04-29 16:09 | 59.64744 | 17.92217 | 111 ft | 18 kts | 191° |
| 2026-04-29 16:09 | 59.64621 | 17.92173 | 111 ft | 18 kts | 191° |
| 2026-04-29 16:09 | 59.64499 | 17.92128 | 112 ft | 18 kts | 191° |
| 2026-04-29 16:10 | 59.64414 | 17.91991 | 111 ft | 18 kts | 257° |
| 2026-04-29 16:10 | 59.64407 | 17.91881 | 110 ft | 2 kts | 272° |
| 2026-04-29 16:10 | 59.64407 | 17.91867 | 110 ft | 2 kts | 275° |
| 2026-04-29 16:10 | 59.64411 | 17.91808 | 109 ft | 8 kts | 278° |
| 2026-04-29 16:11 | 59.64424 | 17.91669 | 105 ft | 11 kts | 282° |
| 2026-04-29 16:11 | 59.64476 | 17.91595 | 108 ft | 7 kts | 9° |
| 2026-04-29 16:11 | 59.64480 | 17.91597 | 108 ft | 0 kts | 10° |
| 2026-04-29 16:12 | 59.64559 | 17.91624 | 110 ft | 39 kts | 9° |
| 2026-04-29 16:12 | 59.65063 | 17.91807 | 103 ft | 106 kts | 10° |
| 2026-04-29 16:13 | 59.65976 | 17.92144 | 151 ft | 155 kts | 7° |
| 2026-04-29 16:13 | 59.67073 | 17.92580 | 649 ft | 168 kts | 8° |
| 2026-04-29 16:13 | 59.68203 | 17.93134 | 1510 ft | 161 kts | 11° |
| 2026-04-29 16:13 | 59.69314 | 17.93740 | 2108 ft | 175 kts | 11° |
| 2026-04-29 16:14 | 59.70584 | 17.94171 | 2495 ft | 189 kts | 4° |
| 2026-04-29 16:14 | 59.71896 | 17.94530 | 3103 ft | 190 kts | 5° |
| 2026-04-29 16:14 | 59.73206 | 17.94918 | 3685 ft | 192 kts | 5° |
| 2026-04-29 16:14 | 59.74533 | 17.95691 | 3951 ft | 215 kts | 32° |
| 2026-04-29 16:15 | 59.75427 | 17.98243 | 4212 ft | 247 kts | 71° |
| 2026-04-29 16:15 | 59.75529 | 18.01799 | 4752 ft | 265 kts | 89° |
| 2026-04-29 16:15 | 59.75444 | 18.05476 | 5553 ft | 270 kts | 88° |
| 2026-04-29 16:15 | 59.75376 | 18.09221 | 6370 ft | 272 kts | 87° |
| 2026-04-29 16:16 | 59.75319 | 18.12973 | 7167 ft | 273 kts | 87° |
| 2026-04-29 16:16 | 59.75222 | 18.16780 | 7756 ft | 283 kts | 96° |
| 2026-04-29 16:16 | 59.74358 | 18.20335 | 8418 ft | 297 kts | 130° |
| 2026-04-29 16:16 | 59.72641 | 18.22667 | 9095 ft | 305 kts | 156° |
| 2026-04-29 16:17 | 59.70599 | 18.23917 | 9734 ft | 310 kts | 166° |
| 2026-04-29 16:17 | 59.68474 | 18.24845 | 10346 ft | 316 kts | 168° |
| 2026-04-29 16:17 | 59.66281 | 18.25727 | 10695 ft | 331 kts | 168° |
| 2026-04-29 16:17 | 59.63951 | 18.26660 | 10863 ft | 352 kts | 168° |
| 2026-04-29 16:18 | 59.61491 | 18.27662 | 11085 ft | 369 kts | 168° |
| 2026-04-29 16:18 | 59.58954 | 18.28715 | 11590 ft | 376 kts | 168° |
| 2026-04-29 16:18 | 59.56381 | 18.29797 | 12233 ft | 379 kts | 167° |
| 2026-04-29 16:18 | 59.53790 | 18.30899 | 12884 ft | 383 kts | 167° |
| 2026-04-29 16:19 | 59.51172 | 18.32017 | 13528 ft | 387 kts | 167° |
| 2026-04-29 16:19 | 59.48527 | 18.33149 | 14192 ft | 391 kts | 166° |
| 2026-04-29 16:19 | 59.45856 | 18.34293 | 14760 ft | 396 kts | 166° |
| 2026-04-29 16:19 | 59.43143 | 18.35454 | 15339 ft | 401 kts | 166° |
| 2026-04-29 16:20 | 59.40402 | 18.36624 | 15943 ft | 405 kts | 166° |
| 2026-04-29 16:20 | 59.37636 | 18.37804 | 16520 ft | 410 kts | 166° |
| 2026-04-29 16:20 | 59.34803 | 18.38800 | 17066 ft | 418 kts | 174° |
| 2026-04-29 16:20 | 59.31868 | 18.38726 | 17523 ft | 426 kts | 188° |
| 2026-04-29 16:21 | 59.28935 | 18.37710 | 18078 ft | 431 kts | 192° |
| 2026-04-29 16:21 | 59.25978 | 18.36589 | 18637 ft | 435 kts | 192° |
| 2026-04-29 16:21 | 59.23029 | 18.35473 | 19086 ft | 440 kts | 192° |
| 2026-04-29 16:21 | 59.20000 | 18.34344 | 19546 ft | 445 kts | 191° |
| 2026-04-29 16:22 | 59.16940 | 18.33225 | 20000 ft | 450 kts | 191° |
| 2026-04-29 16:22 | 59.13839 | 18.32110 | 20422 ft | 455 kts | 191° |
| 2026-04-29 16:22 | 59.10704 | 18.30995 | 20857 ft | 460 kts | 191° |
| 2026-04-29 16:22 | 59.07538 | 18.29877 | 21304 ft | 465 kts | 191° |
| 2026-04-29 16:23 | 59.04341 | 18.28755 | 21739 ft | 469 kts | 191° |
| 2026-04-29 16:23 | 59.01110 | 18.27623 | 22152 ft | 474 kts | 191° |
| 2026-04-29 16:23 | 58.97852 | 18.26484 | 22571 ft | 478 kts | 191° |
| 2026-04-29 16:23 | 58.94561 | 18.25334 | 22993 ft | 483 kts | 191° |
| 2026-04-29 16:24 | 58.91240 | 18.24177 | 23408 ft | 487 kts | 191° |
| 2026-04-29 16:24 | 58.87891 | 18.23011 | 23792 ft | 491 kts | 190° |
| 2026-04-29 16:24 | 58.84516 | 18.21838 | 24126 ft | 496 kts | 190° |
| 2026-04-29 16:24 | 58.81108 | 18.20657 | 24479 ft | 498 kts | 190° |
| 2026-04-29 16:25 | 58.77687 | 18.19473 | 24854 ft | 501 kts | 190° |
| 2026-04-29 16:25 | 58.74250 | 18.18286 | 25222 ft | 503 kts | 190° |
| 2026-04-29 16:25 | 58.70791 | 18.17094 | 25551 ft | 506 kts | 190° |
| 2026-04-29 16:25 | 58.67326 | 18.15902 | 25876 ft | 509 kts | 190° |
| 2026-04-29 16:26 | 58.63827 | 18.14700 | 26203 ft | 512 kts | 190° |
| 2026-04-29 16:26 | 58.60308 | 18.13495 | 26523 ft | 515 kts | 190° |
| 2026-04-29 16:26 | 58.56772 | 18.12286 | 26829 ft | 518 kts | 189° |
| 2026-04-29 16:26 | 58.53217 | 18.11072 | 27143 ft | 521 kts | 189° |
| 2026-04-29 16:27 | 58.49689 | 18.09871 | 27448 ft | 523 kts | 189° |
| 2026-04-29 16:27 | 58.46096 | 18.08651 | 27753 ft | 526 kts | 189° |
| 2026-04-29 16:27 | 58.42491 | 18.07428 | 28048 ft | 528 kts | 189° |
| 2026-04-29 16:27 | 58.38862 | 18.06200 | 28337 ft | 531 kts | 189° |
| 2026-04-29 16:28 | 58.35219 | 18.04970 | 28618 ft | 533 kts | 189° |
| 2026-04-29 16:28 | 58.31561 | 18.03737 | 28902 ft | 535 kts | 189° |
| 2026-04-29 16:28 | 58.27880 | 18.02499 | 29158 ft | 538 kts | 189° |
| 2026-04-29 16:28 | 58.24186 | 18.01260 | 29429 ft | 540 kts | 189° |
| 2026-04-29 16:29 | 58.20479 | 18.00018 | 29726 ft | 542 kts | 189° |
| 2026-04-29 16:29 | 58.16768 | 17.98778 | 30084 ft | 542 kts | 188° |
| 2026-04-29 16:29 | 58.13058 | 17.97540 | 30489 ft | 541 kts | 188° |
| 2026-04-29 16:29 | 58.09358 | 17.96308 | 30813 ft | 540 kts | 188° |
| 2026-04-29 16:30 | 58.05657 | 17.95079 | 31126 ft | 540 kts | 188° |
| 2026-04-29 16:30 | 58.01963 | 17.93855 | 31445 ft | 538 kts | 188° |
| 2026-04-29 16:30 | 57.98277 | 17.92635 | 31765 ft | 538 kts | 188° |
| 2026-04-29 16:30 | 57.94594 | 17.91420 | 32076 ft | 537 kts | 188° |
| 2026-04-29 16:31 | 57.90912 | 17.90208 | 32367 ft | 537 kts | 188° |
| 2026-04-29 16:31 | 57.87231 | 17.88998 | 32683 ft | 536 kts | 188° |
| 2026-04-29 16:31 | 57.83565 | 17.87796 | 33073 ft | 533 kts | 188° |
| 2026-04-29 16:31 | 57.79917 | 17.86602 | 33424 ft | 532 kts | 188° |
| 2026-04-29 16:32 | 57.76255 | 17.85406 | 33409 ft | 536 kts | 187° |
| 2026-04-29 16:32 | 57.68929 | 17.83022 | 33410 ft | 532 kts | 187° |
| 2026-04-29 16:33 | 57.58066 | 17.79501 | 33437 ft | 527 kts | 187° |
| 2026-04-29 16:33 | 57.50834 | 17.77172 | 33441 ft | 528 kts | 187° |
| 2026-04-29 16:34 | 57.43589 | 17.74848 | 33436 ft | 528 kts | 187° |
| 2026-04-29 16:34 | 57.37564 | 17.72921 | 33434 ft | 529 kts | 187° |
| 2026-04-29 16:35 | 57.29131 | 17.70235 | 33434 ft | 530 kts | 187° |
| 2026-04-29 16:35 | 57.21860 | 17.67928 | 33448 ft | 530 kts | 187° |
| 2026-04-29 16:36 | 57.14589 | 17.65631 | 33441 ft | 530 kts | 187° |
| 2026-04-29 16:36 | 57.08497 | 17.63714 | 33444 ft | 530 kts | 187° |
| 2026-04-29 16:37 | 57.01218 | 17.61431 | 33447 ft | 530 kts | 187° |
| 2026-04-29 16:37 | 56.95174 | 17.59542 | 33450 ft | 530 kts | 186° |
| 2026-04-29 16:38 | 56.86717 | 17.56910 | 33448 ft | 530 kts | 186° |
| 2026-04-29 16:38 | 56.79444 | 17.54656 | 33452 ft | 530 kts | 186° |
| 2026-04-29 16:39 | 56.72175 | 17.52413 | 33449 ft | 530 kts | 186° |
| 2026-04-29 16:39 | 56.64911 | 17.50178 | 33452 ft | 529 kts | 186° |
| 2026-04-29 16:40 | 56.57651 | 17.47955 | 33451 ft | 529 kts | 186° |
| 2026-04-29 16:40 | 56.50394 | 17.45741 | 33453 ft | 529 kts | 186° |
| 2026-04-29 16:41 | 56.43146 | 17.43539 | 33450 ft | 528 kts | 186° |
| 2026-04-29 16:41 | 56.35892 | 17.41342 | 33451 ft | 528 kts | 185° |
| 2026-04-29 16:42 | 56.28650 | 17.39158 | 33455 ft | 528 kts | 185° |
| 2026-04-29 16:42 | 56.21411 | 17.36984 | 33456 ft | 527 kts | 185° |
| 2026-04-29 16:43 | 56.14174 | 17.34818 | 33468 ft | 528 kts | 185° |
| 2026-04-29 16:43 | 56.06921 | 17.32656 | 33459 ft | 528 kts | 185° |
| 2026-04-29 16:44 | 55.99672 | 17.30502 | 33454 ft | 528 kts | 185° |
| 2026-04-29 16:44 | 55.92431 | 17.28359 | 33456 ft | 528 kts | 185° |
| 2026-04-29 16:45 | 55.85188 | 17.26223 | 33459 ft | 527 kts | 184° |
| 2026-04-29 16:45 | 55.77982 | 17.25799 | 33465 ft | 511 kts | 165° |
| 2026-04-29 16:46 | 55.71184 | 17.28702 | 33460 ft | 497 kts | 149° |
| 2026-04-29 16:46 | 55.64720 | 17.33151 | 33457 ft | 499 kts | 149° |
| 2026-04-29 16:47 | 55.58223 | 17.37555 | 33467 ft | 500 kts | 149° |
| 2026-04-29 16:47 | 55.51707 | 17.41883 | 33454 ft | 500 kts | 150° |
| 2026-04-29 16:48 | 55.45193 | 17.46165 | 33457 ft | 499 kts | 150° |
| 2026-04-29 16:48 | 55.38695 | 17.50422 | 33467 ft | 498 kts | 150° |
| 2026-04-29 16:49 | 55.32217 | 17.54654 | 33462 ft | 496 kts | 150° |
| 2026-04-29 16:49 | 55.25763 | 17.58859 | 33468 ft | 494 kts | 150° |
| 2026-04-29 16:50 | 55.19335 | 17.63033 | 33464 ft | 492 kts | 150° |
| 2026-04-29 16:50 | 55.12934 | 17.67176 | 33457 ft | 490 kts | 150° |
| 2026-04-29 16:51 | 55.06589 | 17.71269 | 33464 ft | 489 kts | 150° |
| 2026-04-29 16:51 | 55.00213 | 17.75370 | 33493 ft | 489 kts | 150° |
| 2026-04-29 16:52 | 54.93824 | 17.79465 | 33469 ft | 489 kts | 150° |
| 2026-04-29 16:52 | 54.87430 | 17.83549 | 33470 ft | 490 kts | 150° |
| 2026-04-29 16:53 | 54.80975 | 17.87656 | 33465 ft | 491 kts | 150° |
| 2026-04-29 16:53 | 54.74588 | 17.91706 | 33466 ft | 493 kts | 150° |
| 2026-04-29 16:54 | 54.68145 | 17.95779 | 33471 ft | 494 kts | 150° |
| 2026-04-29 16:54 | 54.61680 | 17.99850 | 33463 ft | 495 kts | 150° |
| 2026-04-29 16:55 | 54.55159 | 18.03943 | 33484 ft | 496 kts | 150° |
| 2026-04-29 16:55 | 54.48663 | 18.08006 | 33461 ft | 497 kts | 150° |
| 2026-04-29 16:56 | 54.42166 | 18.12054 | 33455 ft | 497 kts | 150° |
| 2026-04-29 16:56 | 54.35717 | 18.16059 | 33461 ft | 496 kts | 150° |
| 2026-04-29 16:57 | 54.29237 | 18.20070 | 33458 ft | 495 kts | 150° |
| 2026-04-29 16:57 | 54.22770 | 18.24061 | 33462 ft | 493 kts | 150° |
| 2026-04-29 16:58 | 54.16322 | 18.28027 | 33452 ft | 492 kts | 150° |
| 2026-04-29 16:58 | 54.09879 | 18.31979 | 33453 ft | 492 kts | 151° |
| 2026-04-29 16:59 | 54.03447 | 18.35908 | 33445 ft | 491 kts | 151° |
| 2026-04-29 16:59 | 53.97026 | 18.39819 | 33445 ft | 490 kts | 151° |
| 2026-04-29 17:00 | 53.90613 | 18.43712 | 33444 ft | 489 kts | 151° |
| 2026-04-29 17:00 | 53.84204 | 18.47591 | 33446 ft | 489 kts | 151° |
| 2026-04-29 17:01 | 53.77790 | 18.51461 | 33447 ft | 490 kts | 151° |
| 2026-04-29 17:01 | 53.71365 | 18.55325 | 33483 ft | 490 kts | 152° |
| 2026-04-29 17:02 | 53.64927 | 18.59183 | 33444 ft | 491 kts | 152° |
| 2026-04-29 17:02 | 53.58486 | 18.63029 | 33435 ft | 491 kts | 152° |
| 2026-04-29 17:03 | 53.52041 | 18.66865 | 33448 ft | 491 kts | 152° |
| 2026-04-29 17:03 | 53.45594 | 18.70690 | 33430 ft | 491 kts | 152° |
| 2026-04-29 17:04 | 53.39145 | 18.74504 | 33438 ft | 491 kts | 152° |
| 2026-04-29 17:04 | 53.32700 | 18.78304 | 33429 ft | 491 kts | 152° |
| 2026-04-29 17:05 | 53.26248 | 18.82097 | 33436 ft | 492 kts | 152° |
| 2026-04-29 17:05 | 53.19790 | 18.85880 | 33431 ft | 491 kts | 152° |
| 2026-04-29 17:06 | 53.13386 | 18.89618 | 33429 ft | 490 kts | 152° |
| 2026-04-29 17:06 | 53.06949 | 18.93365 | 33424 ft | 490 kts | 152° |
| 2026-04-29 17:07 | 53.01567 | 18.96489 | 33419 ft | 489 kts | 152° |
| 2026-04-29 17:07 | 52.94109 | 19.00804 | 33439 ft | 488 kts | 153° |
| 2026-04-29 17:08 | 52.87701 | 19.04500 | 33451 ft | 487 kts | 153° |
| 2026-04-29 17:08 | 52.81298 | 19.08180 | 33431 ft | 487 kts | 153° |
| 2026-04-29 17:09 | 52.74906 | 19.11843 | 33415 ft | 486 kts | 153° |
| 2026-04-29 17:09 | 52.68528 | 19.15486 | 33421 ft | 484 kts | 153° |
| 2026-04-29 17:10 | 52.62165 | 19.19108 | 33419 ft | 484 kts | 153° |
| 2026-04-29 17:10 | 52.55777 | 19.22740 | 33747 ft | 486 kts | 154° |
| 2026-04-29 17:11 | 52.52587 | 19.24546 | 34125 ft | 484 kts | 154° |
| 2026-04-29 17:11 | 52.49412 | 19.26339 | 34506 ft | 481 kts | 154° |
| 2026-04-29 17:11 | 52.46252 | 19.28121 | 34759 ft | 481 kts | 155° |
| 2026-04-29 17:11 | 52.43082 | 19.29909 | 34922 ft | 482 kts | 155° |
| 2026-04-29 17:12 | 52.39904 | 19.31702 | 35062 ft | 484 kts | 156° |
| 2026-04-29 17:12 | 52.36719 | 19.33494 | 35267 ft | 484 kts | 156° |
| 2026-04-29 17:12 | 52.33538 | 19.35280 | 35416 ft | 484 kts | 156° |
| 2026-04-29 17:12 | 52.31418 | 19.36468 | 35388 ft | 487 kts | 156° |
| 2026-04-29 17:13 | 52.23948 | 19.40644 | 35397 ft | 484 kts | 156° |
| 2026-04-29 17:13 | 52.17604 | 19.44177 | 35400 ft | 480 kts | 156° |
| 2026-04-29 17:14 | 52.11294 | 19.47683 | 35393 ft | 478 kts | 157° |
| 2026-04-29 17:14 | 52.05009 | 19.51168 | 35401 ft | 477 kts | 157° |
| 2026-04-29 17:15 | 51.98772 | 19.54615 | 35403 ft | 477 kts | 157° |
| 2026-04-29 17:15 | 51.92479 | 19.58083 | 35406 ft | 479 kts | 157° |
| 2026-04-29 17:16 | 51.86160 | 19.61554 | 35405 ft | 481 kts | 157° |
| 2026-04-29 17:16 | 51.79810 | 19.65032 | 35405 ft | 483 kts | 157° |
| 2026-04-29 17:17 | 51.73435 | 19.68512 | 35402 ft | 485 kts | 157° |
| 2026-04-29 17:17 | 51.67035 | 19.71996 | 35426 ft | 486 kts | 158° |
| 2026-04-29 17:18 | 51.60611 | 19.75482 | 35403 ft | 487 kts | 158° |
| 2026-04-29 17:18 | 51.54187 | 19.78958 | 35388 ft | 487 kts | 159° |
| 2026-04-29 17:19 | 51.47763 | 19.82424 | 35394 ft | 487 kts | 159° |
| 2026-04-29 17:19 | 51.41349 | 19.85875 | 35390 ft | 486 kts | 159° |
| 2026-04-29 17:20 | 51.34946 | 19.89307 | 35392 ft | 485 kts | 159° |
| 2026-04-29 17:20 | 51.28531 | 19.92636 | 35387 ft | 484 kts | 160° |
| 2026-04-29 17:21 | 51.22119 | 19.95941 | 35398 ft | 484 kts | 160° |
| 2026-04-29 17:21 | 51.15699 | 19.99214 | 35390 ft | 484 kts | 160° |
| 2026-04-29 17:22 | 51.09277 | 20.02469 | 35390 ft | 484 kts | 160° |
| 2026-04-29 17:22 | 51.03947 | 20.05206 | 35387 ft | 484 kts | 160° |
| 2026-04-29 17:23 | 50.97539 | 20.08507 | 35374 ft | 484 kts | 160° |
| 2026-04-29 17:23 | 50.90082 | 20.12322 | 35384 ft | 485 kts | 160° |
| 2026-04-29 17:24 | 50.84695 | 20.15047 | 35389 ft | 486 kts | 161° |
| 2026-04-29 17:24 | 50.78253 | 20.18291 | 35375 ft | 486 kts | 161° |
| 2026-04-29 17:25 | 50.71804 | 20.21535 | 35362 ft | 486 kts | 161° |
| 2026-04-29 17:25 | 50.65355 | 20.24780 | 35366 ft | 486 kts | 160° |
| 2026-04-29 17:26 | 50.59179 | 20.29064 | 35368 ft | 485 kts | 152° |
| 2026-04-29 17:26 | 50.53189 | 20.33817 | 35355 ft | 486 kts | 152° |
| 2026-04-29 17:27 | 50.47146 | 20.38575 | 35348 ft | 486 kts | 153° |
| 2026-04-29 17:27 | 50.41070 | 20.43263 | 35347 ft | 487 kts | 153° |
| 2026-04-29 17:28 | 50.34980 | 20.47909 | 35342 ft | 487 kts | 153° |
| 2026-04-29 17:28 | 50.28882 | 20.52543 | 35337 ft | 487 kts | 153° |
| 2026-04-29 17:29 | 50.22778 | 20.57172 | 35332 ft | 488 kts | 153° |
| 2026-04-29 17:29 | 50.16671 | 20.61794 | 35331 ft | 488 kts | 154° |
| 2026-04-29 17:30 | 50.10554 | 20.66409 | 35330 ft | 488 kts | 154° |
| 2026-04-29 17:30 | 50.04431 | 20.71016 | 35327 ft | 489 kts | 154° |
| 2026-04-29 17:31 | 49.98299 | 20.75616 | 35325 ft | 489 kts | 154° |
| 2026-04-29 17:31 | 49.92162 | 20.80207 | 35320 ft | 490 kts | 154° |
| 2026-04-29 17:32 | 49.86014 | 20.84793 | 35328 ft | 490 kts | 155° |
| 2026-04-29 17:32 | 49.79859 | 20.89371 | 35316 ft | 491 kts | 155° |
| 2026-04-29 17:33 | 49.73740 | 20.93910 | 35314 ft | 491 kts | 155° |
| 2026-04-29 17:33 | 49.67571 | 20.98473 | 35308 ft | 491 kts | 155° |
| 2026-04-29 17:34 | 49.61401 | 21.03024 | 35294 ft | 491 kts | 155° |
| 2026-04-29 17:34 | 49.55233 | 21.07560 | 35302 ft | 491 kts | 155° |
| 2026-04-29 17:35 | 49.45982 | 21.14341 | 35295 ft | 491 kts | 156° |
| 2026-04-29 17:36 | 49.39822 | 21.18840 | 35296 ft | 490 kts | 156° |
| 2026-04-29 17:36 | 49.33673 | 21.23319 | 35274 ft | 489 kts | 156° |
| 2026-04-29 17:37 | 49.27536 | 21.27776 | 35289 ft | 487 kts | 156° |
| 2026-04-29 17:37 | 49.21412 | 21.32212 | 35310 ft | 487 kts | 157° |
| 2026-04-29 17:38 | 49.15289 | 21.36633 | 35294 ft | 487 kts | 157° |
| 2026-04-29 17:38 | 49.09170 | 21.41042 | 35295 ft | 486 kts | 157° |
| 2026-04-29 17:39 | 49.03055 | 21.45435 | 35301 ft | 486 kts | 157° |
| 2026-04-29 17:39 | 48.96939 | 21.49817 | 35295 ft | 486 kts | 157° |
| 2026-04-29 17:40 | 48.90827 | 21.54183 | 35297 ft | 485 kts | 158° |
| 2026-04-29 17:40 | 48.84714 | 21.58537 | 35296 ft | 485 kts | 158° |
| 2026-04-29 17:41 | 48.78598 | 21.62885 | 35276 ft | 485 kts | 159° |
| 2026-04-29 17:41 | 48.72486 | 21.67217 | 35285 ft | 485 kts | 159° |
| 2026-04-29 17:42 | 48.66408 | 21.71513 | 35279 ft | 486 kts | 159° |
| 2026-04-29 17:42 | 48.60278 | 21.75834 | 35270 ft | 487 kts | 159° |
| 2026-04-29 17:43 | 48.54132 | 21.80155 | 35242 ft | 487 kts | 159° |
| 2026-04-29 17:43 | 48.47977 | 21.84471 | 35260 ft | 488 kts | 159° |
| 2026-04-29 17:44 | 48.41805 | 21.88789 | 35268 ft | 490 kts | 159° |
| 2026-04-29 17:44 | 48.35668 | 21.93299 | 35253 ft | 495 kts | 152° |
| 2026-04-29 17:45 | 48.30117 | 21.99513 | 35257 ft | 500 kts | 145° |
| 2026-04-29 17:45 | 48.24663 | 22.06022 | 35241 ft | 501 kts | 145° |
| 2026-04-29 17:46 | 48.19172 | 22.12488 | 35250 ft | 502 kts | 146° |
| 2026-04-29 17:46 | 48.13638 | 22.18910 | 35246 ft | 504 kts | 146° |
| 2026-04-29 17:47 | 48.08075 | 22.25318 | 35253 ft | 505 kts | 146° |
| 2026-04-29 17:47 | 48.02493 | 22.31732 | 35233 ft | 507 kts | 146° |
| 2026-04-29 17:48 | 47.96898 | 22.38147 | 35208 ft | 508 kts | 146° |
| 2026-04-29 17:48 | 47.91291 | 22.44560 | 35225 ft | 508 kts | 146° |
| 2026-04-29 17:49 | 47.85677 | 22.50978 | 35232 ft | 509 kts | 145° |
| 2026-04-29 17:49 | 47.80181 | 22.57673 | 35228 ft | 512 kts | 143° |
| 2026-04-29 17:50 | 47.74737 | 22.64507 | 35220 ft | 513 kts | 143° |
| 2026-04-29 17:50 | 47.69270 | 22.71309 | 35212 ft | 513 kts | 143° |
| 2026-04-29 17:51 | 47.63779 | 22.78061 | 35204 ft | 512 kts | 144° |
| 2026-04-29 17:51 | 47.58287 | 22.84770 | 35210 ft | 511 kts | 144° |
| 2026-04-29 17:52 | 47.52805 | 22.91447 | 35211 ft | 510 kts | 144° |
| 2026-04-29 17:52 | 47.47321 | 22.98111 | 35200 ft | 510 kts | 144° |
| 2026-04-29 17:53 | 47.41854 | 23.04738 | 35206 ft | 508 kts | 144° |
| 2026-04-29 17:53 | 47.36380 | 23.11356 | 35166 ft | 507 kts | 144° |
| 2026-04-29 17:54 | 47.30936 | 23.17920 | 35189 ft | 505 kts | 144° |
| 2026-04-29 17:54 | 47.25494 | 23.24462 | 35194 ft | 504 kts | 144° |
| 2026-04-29 17:55 | 47.20098 | 23.30930 | 35188 ft | 504 kts | 144° |
| 2026-04-29 17:55 | 47.14661 | 23.37431 | 35179 ft | 504 kts | 145° |
| 2026-04-29 17:56 | 47.09219 | 23.43920 | 35187 ft | 504 kts | 145° |
| 2026-04-29 17:56 | 47.03766 | 23.50404 | 35163 ft | 505 kts | 145° |
| 2026-04-29 17:57 | 46.98297 | 23.56890 | 35173 ft | 507 kts | 145° |
| 2026-04-29 17:57 | 46.92803 | 23.63386 | 35164 ft | 508 kts | 145° |
| 2026-04-29 17:58 | 46.87290 | 23.69890 | 35161 ft | 510 kts | 145° |
| 2026-04-29 17:58 | 46.81758 | 23.76397 | 35153 ft | 511 kts | 145° |
| 2026-04-29 17:59 | 46.76213 | 23.82903 | 35120 ft | 511 kts | 145° |
| 2026-04-29 17:59 | 46.70671 | 23.89387 | 35152 ft | 511 kts | 145° |
| 2026-04-29 18:00 | 46.65118 | 23.95867 | 35156 ft | 511 kts | 146° |
| 2026-04-29 18:00 | 46.59567 | 24.02325 | 35153 ft | 511 kts | 146° |
| 2026-04-29 18:01 | 46.54019 | 24.08765 | 35179 ft | 510 kts | 146° |
| 2026-04-29 18:01 | 46.48466 | 24.15192 | 35157 ft | 510 kts | 146° |
| 2026-04-29 18:02 | 46.42920 | 24.21594 | 35139 ft | 509 kts | 146° |
| 2026-04-29 18:02 | 46.37375 | 24.27977 | 35141 ft | 509 kts | 146° |
| 2026-04-29 18:03 | 46.31832 | 24.34340 | 35145 ft | 508 kts | 146° |
| 2026-04-29 18:03 | 46.26289 | 24.40687 | 35155 ft | 508 kts | 146° |
| 2026-04-29 18:04 | 46.20779 | 24.46980 | 35153 ft | 508 kts | 146° |
| 2026-04-29 18:04 | 46.15233 | 24.53296 | 35137 ft | 508 kts | 146° |
| 2026-04-29 18:05 | 46.09680 | 24.59604 | 35141 ft | 508 kts | 146° |
| 2026-04-29 18:05 | 46.04121 | 24.65902 | 35129 ft | 508 kts | 146° |
| 2026-04-29 18:06 | 45.98560 | 24.72187 | 35160 ft | 508 kts | 146° |
| 2026-04-29 18:06 | 45.92993 | 24.78461 | 35149 ft | 509 kts | 146° |
| 2026-04-29 18:07 | 45.87420 | 24.84726 | 35126 ft | 508 kts | 146° |
| 2026-04-29 18:07 | 45.81853 | 24.90967 | 35150 ft | 508 kts | 146° |
| 2026-04-29 18:08 | 45.76287 | 24.97191 | 35162 ft | 508 kts | 146° |
| 2026-04-29 18:08 | 45.70716 | 25.03405 | 35166 ft | 508 kts | 146° |
| 2026-04-29 18:09 | 45.65140 | 25.09608 | 35155 ft | 508 kts | 146° |
| 2026-04-29 18:09 | 45.59568 | 25.15791 | 35169 ft | 507 kts | 146° |
| 2026-04-29 18:10 | 45.54003 | 25.21949 | 35168 ft | 506 kts | 146° |
| 2026-04-29 18:10 | 45.48434 | 25.28097 | 35169 ft | 506 kts | 146° |
| 2026-04-29 18:11 | 45.42871 | 25.34221 | 35172 ft | 505 kts | 147° |
| 2026-04-29 18:11 | 45.38242 | 25.39306 | 35180 ft | 506 kts | 147° |
| 2026-04-29 18:12 | 45.32670 | 25.45411 | 35189 ft | 506 kts | 147° |
| 2026-04-29 18:12 | 45.27096 | 25.51506 | 35173 ft | 505 kts | 147° |
| 2026-04-29 18:13 | 45.21529 | 25.57576 | 35181 ft | 504 kts | 147° |
| 2026-04-29 18:13 | 45.15966 | 25.63626 | 35186 ft | 504 kts | 147° |
| 2026-04-29 18:14 | 45.10406 | 25.69656 | 35190 ft | 504 kts | 147° |
| 2026-04-29 18:14 | 45.04840 | 25.75679 | 35174 ft | 504 kts | 147° |
| 2026-04-29 18:15 | 44.99269 | 25.81693 | 35157 ft | 503 kts | 148° |
| 2026-04-29 18:15 | 44.93719 | 25.87670 | 35175 ft | 502 kts | 148° |
| 2026-04-29 18:16 | 44.88167 | 25.93632 | 35183 ft | 501 kts | 148° |
| 2026-04-29 18:16 | 44.82619 | 25.99576 | 35176 ft | 501 kts | 148° |
| 2026-04-29 18:17 | 44.77063 | 26.05513 | 35186 ft | 501 kts | 148° |
| 2026-04-29 18:17 | 44.71508 | 26.11435 | 35155 ft | 501 kts | 148° |
| 2026-04-29 18:18 | 44.65949 | 26.17346 | 35180 ft | 501 kts | 148° |
| 2026-04-29 18:18 | 44.60381 | 26.23251 | 35188 ft | 502 kts | 148° |
| 2026-04-29 18:19 | 44.54804 | 26.29153 | 35165 ft | 503 kts | 148° |
| 2026-04-29 18:19 | 44.49212 | 26.35056 | 35157 ft | 503 kts | 148° |
| 2026-04-29 18:20 | 44.43611 | 26.40953 | 35120 ft | 504 kts | 148° |
| 2026-04-29 18:20 | 44.38009 | 26.46839 | 35142 ft | 504 kts | 148° |
| 2026-04-29 18:21 | 44.32403 | 26.52713 | 35149 ft | 504 kts | 148° |
| 2026-04-29 18:21 | 44.26797 | 26.58573 | 35137 ft | 504 kts | 148° |
| 2026-04-29 18:22 | 44.21186 | 26.64423 | 35147 ft | 503 kts | 148° |
| 2026-04-29 18:22 | 44.15576 | 26.70258 | 35099 ft | 503 kts | 148° |
| 2026-04-29 18:23 | 44.09974 | 26.76072 | 35134 ft | 502 kts | 148° |
| 2026-04-29 18:23 | 44.04376 | 26.81866 | 35145 ft | 501 kts | 148° |
| 2026-04-29 18:24 | 43.98779 | 26.87646 | 35130 ft | 501 kts | 148° |
| 2026-04-29 18:24 | 43.93180 | 26.93413 | 35136 ft | 501 kts | 148° |
| 2026-04-29 18:25 | 43.87584 | 26.99165 | 35118 ft | 501 kts | 148° |
| 2026-04-29 18:25 | 43.81985 | 27.04904 | 35129 ft | 500 kts | 148° |
| 2026-04-29 18:26 | 43.76423 | 27.10593 | 35143 ft | 500 kts | 148° |
| 2026-04-29 18:26 | 43.70822 | 27.16308 | 35140 ft | 500 kts | 148° |
| 2026-04-29 18:27 | 43.65216 | 27.22014 | 35144 ft | 501 kts | 148° |
| 2026-04-29 18:27 | 43.59606 | 27.27712 | 35133 ft | 501 kts | 148° |
| 2026-04-29 18:28 | 43.53994 | 27.33398 | 35144 ft | 500 kts | 148° |
| 2026-04-29 18:28 | 43.48383 | 27.39069 | 35152 ft | 500 kts | 148° |
| 2026-04-29 18:29 | 43.42771 | 27.44728 | 35157 ft | 500 kts | 148° |
| 2026-04-29 18:29 | 43.37157 | 27.50376 | 35157 ft | 500 kts | 148° |
| 2026-04-29 18:30 | 43.31540 | 27.56013 | 35157 ft | 500 kts | 149° |
| 2026-04-29 18:30 | 43.25925 | 27.61636 | 35159 ft | 500 kts | 149° |
| 2026-04-29 18:31 | 43.20307 | 27.67248 | 35158 ft | 499 kts | 149° |
| 2026-04-29 18:31 | 43.14693 | 27.72843 | 35156 ft | 499 kts | 149° |
| 2026-04-29 18:32 | 43.09083 | 27.78422 | 35160 ft | 498 kts | 149° |
| 2026-04-29 18:32 | 43.00686 | 27.86748 | 35158 ft | 496 kts | 149° |
| 2026-04-29 18:33 | 42.95104 | 27.92267 | 35170 ft | 495 kts | 149° |
| 2026-04-29 18:33 | 42.89529 | 27.97765 | 35185 ft | 494 kts | 149° |
| 2026-04-29 18:34 | 42.84901 | 28.02321 | 35187 ft | 494 kts | 149° |
| 2026-04-29 18:34 | 42.78388 | 28.08716 | 35183 ft | 494 kts | 149° |
| 2026-04-29 18:35 | 42.72815 | 28.14175 | 35181 ft | 494 kts | 149° |
| 2026-04-29 18:35 | 42.67204 | 28.19656 | 34585 ft | 502 kts | 149° |
| 2026-04-29 18:36 | 42.64372 | 28.22419 | 33961 ft | 501 kts | 149° |
| 2026-04-29 18:36 | 42.61540 | 28.25180 | 33242 ft | 501 kts | 149° |
| 2026-04-29 18:36 | 42.58709 | 28.27937 | 32546 ft | 501 kts | 149° |
| 2026-04-29 18:36 | 42.55882 | 28.30688 | 31850 ft | 501 kts | 149° |
| 2026-04-29 18:37 | 42.53057 | 28.33434 | 31299 ft | 497 kts | 149° |
| 2026-04-29 18:37 | 42.50298 | 28.36114 | 30791 ft | 492 kts | 149° |
| 2026-04-29 18:37 | 42.47526 | 28.38803 | 30315 ft | 487 kts | 149° |
| 2026-04-29 18:37 | 42.44782 | 28.41461 | 29772 ft | 483 kts | 149° |
| 2026-04-29 18:38 | 42.42068 | 28.44087 | 29269 ft | 477 kts | 149° |
| 2026-04-29 18:38 | 42.39384 | 28.46680 | 28741 ft | 471 kts | 149° |
| 2026-04-29 18:38 | 42.36730 | 28.49240 | 28266 ft | 466 kts | 149° |
| 2026-04-29 18:38 | 42.34100 | 28.51775 | 27749 ft | 462 kts | 149° |
| 2026-04-29 18:39 | 42.31496 | 28.54281 | 27253 ft | 458 kts | 149° |
| 2026-04-29 18:39 | 42.28914 | 28.56765 | 26776 ft | 454 kts | 149° |
| 2026-04-29 18:39 | 42.26353 | 28.59226 | 26289 ft | 450 kts | 149° |
| 2026-04-29 18:39 | 42.23809 | 28.61667 | 25788 ft | 447 kts | 148° |
| 2026-04-29 18:40 | 42.21287 | 28.64086 | 25322 ft | 443 kts | 148° |
| 2026-04-29 18:40 | 42.18782 | 28.66486 | 24851 ft | 440 kts | 148° |
| 2026-04-29 18:40 | 42.16295 | 28.68868 | 24383 ft | 437 kts | 148° |
| 2026-04-29 18:40 | 42.13823 | 28.71231 | 23924 ft | 434 kts | 148° |
| 2026-04-29 18:41 | 42.05759 | 28.73986 | 22843 ft | 385 kts | 196° |
| 2026-04-29 18:41 | 42.03245 | 28.73003 | 22533 ft | 370 kts | 210° |
| 2026-04-29 18:42 | 42.00959 | 28.71435 | 22252 ft | 371 kts | 214° |
| 2026-04-29 18:42 | 41.98691 | 28.69746 | 21962 ft | 374 kts | 214° |
| 2026-04-29 18:42 | 41.96420 | 28.68028 | 21665 ft | 374 kts | 214° |
| 2026-04-29 18:42 | 41.94160 | 28.66325 | 21360 ft | 371 kts | 214° |
| 2026-04-29 18:43 | 41.91909 | 28.64644 | 21076 ft | 369 kts | 214° |
| 2026-04-29 18:43 | 41.89666 | 28.62982 | 20791 ft | 367 kts | 214° |
| 2026-04-29 18:43 | 41.87431 | 28.61335 | 20501 ft | 366 kts | 214° |
| 2026-04-29 18:43 | 41.85203 | 28.59699 | 20214 ft | 365 kts | 214° |
| 2026-04-29 18:44 | 41.82978 | 28.58069 | 19927 ft | 364 kts | 213° |
| 2026-04-29 18:44 | 41.80761 | 28.56446 | 19649 ft | 363 kts | 213° |
| 2026-04-29 18:44 | 41.78547 | 28.54828 | 19368 ft | 362 kts | 213° |
| 2026-04-29 18:44 | 41.76335 | 28.53213 | 19090 ft | 362 kts | 213° |
| 2026-04-29 18:45 | 41.74128 | 28.51603 | 18805 ft | 361 kts | 213° |
| 2026-04-29 18:45 | 41.71922 | 28.49995 | 18520 ft | 361 kts | 213° |
| 2026-04-29 18:45 | 41.69720 | 28.48391 | 18208 ft | 360 kts | 213° |
| 2026-04-29 18:45 | 41.67526 | 28.46794 | 17885 ft | 359 kts | 213° |
| 2026-04-29 18:46 | 41.65337 | 28.45202 | 17601 ft | 357 kts | 213° |
| 2026-04-29 18:46 | 41.63160 | 28.43621 | 17308 ft | 355 kts | 213° |
| 2026-04-29 18:46 | 41.60996 | 28.42048 | 17030 ft | 353 kts | 213° |
| 2026-04-29 18:46 | 41.58841 | 28.40484 | 16744 ft | 352 kts | 213° |
| 2026-04-29 18:47 | 41.56695 | 28.38927 | 16477 ft | 350 kts | 213° |
| 2026-04-29 18:47 | 41.54556 | 28.37379 | 16204 ft | 349 kts | 213° |
| 2026-04-29 18:47 | 41.52430 | 28.35839 | 15965 ft | 346 kts | 213° |
| 2026-04-29 18:47 | 41.50321 | 28.34310 | 15756 ft | 344 kts | 213° |
| 2026-04-29 18:48 | 41.48253 | 28.32810 | 15551 ft | 342 kts | 213° |
| 2026-04-29 18:48 | 41.46166 | 28.31298 | 15342 ft | 341 kts | 213° |
| 2026-04-29 18:48 | 41.44083 | 28.29788 | 15138 ft | 340 kts | 213° |
| 2026-04-29 18:48 | 41.42004 | 28.28282 | 14921 ft | 340 kts | 212° |
| 2026-04-29 18:49 | 41.39924 | 28.26777 | 14718 ft | 340 kts | 212° |
| 2026-04-29 18:49 | 41.37843 | 28.25272 | 14512 ft | 341 kts | 212° |
| 2026-04-29 18:49 | 41.35759 | 28.23766 | 14278 ft | 341 kts | 211° |
| 2026-04-29 18:49 | 41.33680 | 28.22265 | 14074 ft | 340 kts | 211° |
| 2026-04-29 18:50 | 41.31598 | 28.20763 | 13856 ft | 340 kts | 211° |
| 2026-04-29 18:50 | 41.29523 | 28.19268 | 13628 ft | 339 kts | 211° |
| 2026-04-29 18:50 | 41.27456 | 28.17780 | 13405 ft | 337 kts | 211° |
| 2026-04-29 18:50 | 41.25399 | 28.16299 | 13190 ft | 336 kts | 211° |
| 2026-04-29 18:51 | 41.23348 | 28.14824 | 12981 ft | 334 kts | 211° |
| 2026-04-29 18:51 | 41.21306 | 28.13357 | 12773 ft | 333 kts | 211° |
| 2026-04-29 18:51 | 41.19271 | 28.11895 | 12572 ft | 332 kts | 211° |
| 2026-04-29 18:51 | 41.17236 | 28.10433 | 12273 ft | 334 kts | 211° |
| 2026-04-29 18:52 | 41.15198 | 28.08972 | 12047 ft | 332 kts | 211° |
| 2026-04-29 18:52 | 41.13161 | 28.07511 | 11778 ft | 332 kts | 211° |
| 2026-04-29 18:52 | 41.11133 | 28.06059 | 11567 ft | 330 kts | 211° |
| 2026-04-29 18:52 | 41.09122 | 28.04619 | 11350 ft | 328 kts | 211° |
| 2026-04-29 18:53 | 41.07121 | 28.03187 | 11154 ft | 325 kts | 211° |
| 2026-04-29 18:53 | 41.05135 | 28.01768 | 10941 ft | 323 kts | 211° |
| 2026-04-29 18:53 | 41.03163 | 28.00359 | 10736 ft | 319 kts | 211° |
| 2026-04-29 18:53 | 41.01235 | 27.98986 | 10543 ft | 311 kts | 211° |
| 2026-04-29 18:54 | 40.99325 | 27.97725 | 10344 ft | 305 kts | 202° |
| 2026-04-29 18:54 | 40.97230 | 27.97408 | 10162 ft | 305 kts | 176° |
| 2026-04-29 18:54 | 40.95230 | 27.98270 | 9975 ft | 304 kts | 151° |
| 2026-04-29 18:54 | 40.93686 | 28.00093 | 9907 ft | 296 kts | 127° |
| 2026-04-29 18:55 | 40.92776 | 28.02518 | 9648 ft | 293 kts | 105° |
| 2026-04-29 18:55 | 40.92537 | 28.05157 | 9484 ft | 287 kts | 91° |
| 2026-04-29 18:55 | 40.92498 | 28.07790 | 9306 ft | 286 kts | 89° |
| 2026-04-29 18:55 | 40.92485 | 28.10422 | 9139 ft | 287 kts | 89° |
| 2026-04-29 18:56 | 40.92474 | 28.13060 | 8965 ft | 288 kts | 89° |
| 2026-04-29 18:56 | 40.92460 | 28.15708 | 8797 ft | 288 kts | 89° |
| 2026-04-29 18:56 | 40.92440 | 28.18355 | 8631 ft | 288 kts | 89° |
| 2026-04-29 18:56 | 40.92416 | 28.20998 | 8468 ft | 287 kts | 89° |
| 2026-04-29 18:57 | 40.92390 | 28.23638 | 8304 ft | 287 kts | 89° |
| 2026-04-29 18:57 | 40.92371 | 28.25383 | 8197 ft | 286 kts | 89° |
| 2026-04-29 18:57 | 40.92342 | 28.28012 | 8035 ft | 285 kts | 89° |
| 2026-04-29 18:57 | 40.92301 | 28.31454 | 7813 ft | 280 kts | 89° |
| 2026-04-29 18:58 | 40.92269 | 28.34007 | 7650 ft | 276 kts | 89° |
| 2026-04-29 18:58 | 40.92238 | 28.36539 | 7499 ft | 274 kts | 89° |
| 2026-04-29 18:58 | 40.92206 | 28.39047 | 7351 ft | 272 kts | 89° |
| 2026-04-29 18:58 | 40.92173 | 28.41542 | 7201 ft | 271 kts | 89° |
| 2026-04-29 18:59 | 40.92152 | 28.43189 | 7098 ft | 270 kts | 88° |
| 2026-04-29 18:59 | 40.92119 | 28.45663 | 6944 ft | 269 kts | 89° |
| 2026-04-29 18:59 | 40.92085 | 28.48164 | 6797 ft | 268 kts | 89° |
| 2026-04-29 18:59 | 40.92052 | 28.50589 | 6649 ft | 267 kts | 88° |
| 2026-04-29 19:00 | 40.92017 | 28.53042 | 6498 ft | 267 kts | 88° |
| 2026-04-29 19:00 | 40.91982 | 28.55493 | 6340 ft | 266 kts | 89° |
| 2026-04-29 19:00 | 40.91948 | 28.57936 | 6185 ft | 266 kts | 88° |
| 2026-04-29 19:00 | 40.91912 | 28.60375 | 6031 ft | 265 kts | 88° |
| 2026-04-29 19:01 | 40.91875 | 28.62804 | 5886 ft | 264 kts | 88° |
| 2026-04-29 19:01 | 40.91839 | 28.65229 | 5735 ft | 263 kts | 89° |
| 2026-04-29 19:01 | 40.91949 | 28.67622 | 5563 ft | 258 kts | 70° |
| 2026-04-29 19:01 | 40.92843 | 28.69586 | 5437 ft | 246 kts | 42° |
| 2026-04-29 19:02 | 40.94181 | 28.70917 | 5302 ft | 237 kts | 30° |
| 2026-04-29 19:02 | 40.95607 | 28.71963 | 5159 ft | 231 kts | 28° |
| 2026-04-29 19:02 | 40.96987 | 28.72944 | 5070 ft | 219 kts | 26° |
| 2026-04-29 19:02 | 40.98401 | 28.73393 | 5000 ft | 204 kts | 358° |
| 2026-04-29 19:03 | 40.99786 | 28.73312 | 4994 ft | 198 kts | 1° |
| 2026-04-29 19:03 | 41.01152 | 28.73321 | 4991 ft | 196 kts | 0° |
| 2026-04-29 19:03 | 41.02520 | 28.73314 | 4952 ft | 200 kts | 0° |
| 2026-04-29 19:03 | 41.03932 | 28.73291 | 4715 ft | 206 kts | 0° |
| 2026-04-29 19:04 | 41.05361 | 28.73261 | 4408 ft | 204 kts | 0° |
| 2026-04-29 19:04 | 41.06759 | 28.73229 | 4146 ft | 199 kts | 1° |
| 2026-04-29 19:04 | 41.08127 | 28.73196 | 3885 ft | 195 kts | 0° |
| 2026-04-29 19:04 | 41.09475 | 28.73165 | 3618 ft | 192 kts | 1° |
| 2026-04-29 19:05 | 41.10818 | 28.73134 | 3372 ft | 195 kts | 1° |
| 2026-04-29 19:05 | 41.12173 | 28.73103 | 3128 ft | 194 kts | 1° |
| 2026-04-29 19:05 | 41.13513 | 28.73070 | 2879 ft | 191 kts | 1° |
| 2026-04-29 19:05 | 41.14809 | 28.73040 | 2615 ft | 183 kts | 1° |
| 2026-04-29 19:06 | 41.16071 | 28.73011 | 2403 ft | 182 kts | 2° |
| 2026-04-29 19:06 | 41.17341 | 28.72983 | 2147 ft | 182 kts | 2° |
| 2026-04-29 19:06 | 41.19759 | 28.72925 | 1667 ft | 161 kts | 2° |
| 2026-04-29 19:07 | 41.20834 | 28.72900 | 1453 ft | 151 kts | 3° |
| 2026-04-29 19:07 | 41.21522 | 28.72882 | 1297 ft | 149 kts | 2° |
| 2026-04-29 19:07 | 41.22904 | 28.72852 | 1037 ft | 148 kts | 4° |
| 2026-04-29 19:07 | 41.23930 | 28.72814 | 816 ft | 149 kts | 2° |
| 2026-04-29 19:08 | 41.24962 | 28.72793 | 625 ft | 148 kts | 4° |
| 2026-04-29 19:08 | 41.26004 | 28.72777 | 405 ft | 151 kts | 4° |
| 2026-04-29 19:08 | 41.27004 | 28.72755 | 332 ft | 110 kts | 360° |